sensor_id;sensor_type;location;lat;lon;timestamp;pressure;altitude;pressure_sealevel;temperature;humidity
42067;BME280;27734;47.028;28.820;2023-04-01T00:01:48;99523.20;;;6.66;71.79
42067;BME280;27734;47.028;28.820;2023-04-01T00:04:19;99518.77;;;6.63;71.75
42067;BME280;27734;47.028;28.820;2023-04-01T00:06:51;99522.94;;;6.58;72.15
42067;BME280;27734;47.028;28.820;2023-04-01T00:09:22;99513.27;;;6.56;71.75
42067;BME280;27734;47.028;28.820;2023-04-01T00:11:53;99517.61;;;6.55;72.21
42067;BME280;27734;47.028;28.820;2023-04-01T00:14:24;99513.22;;;6.54;72.19
42067;BME280;27734;47.028;28.820;2023-04-01T00:16:56;99506.30;;;6.55;71.94
42067;BME280;27734;47.028;28.820;2023-04-01T00:19:27;99504.52;;;6.54;72.24
42067;BME280;27734;47.028;28.820;2023-04-01T00:21:59;99501.03;;;6.53;72.41
42067;BME280;27734;47.028;28.820;2023-04-01T00:24:31;99507.95;;;6.53;72.34
42067;BME280;27734;47.028;28.820;2023-04-01T00:27:04;99513.16;;;6.53;72.33
42067;BME280;27734;47.028;28.820;2023-04-01T00:29:37;99517.50;;;6.52;72.61
42067;BME280;27734;47.028;28.820;2023-04-01T00:32:08;99515.66;;;6.50;72.76
42067;BME280;27734;47.028;28.820;2023-04-01T00:34:40;99520.70;;;6.45;72.66
42067;BME280;27734;47.028;28.820;2023-04-01T00:37:11;99517.11;;;6.41;73.27
42067;BME280;27734;47.028;28.820;2023-04-01T00:39:43;99527.30;;;6.35;72.92
42067;BME280;27734;47.028;28.820;2023-04-01T00:42:14;99515.03;;;6.33;72.72
42067;BME280;27734;47.028;28.820;2023-04-01T00:44:47;99521.92;;;6.30;73.42
42067;BME280;27734;47.028;28.820;2023-04-01T00:47:19;99526.25;;;6.30;73.10
42067;BME280;27734;47.028;28.820;2023-04-01T00:49:53;99515.15;;;6.36;73.18
42067;BME280;27734;47.028;28.820;2023-04-01T00:52:26;99505.70;;;6.38;73.27
42067;BME280;27734;47.028;28.820;2023-04-01T00:55:00;99501.41;;;6.40;73.08
42067;BME280;27734;47.028;28.820;2023-04-01T00:57:36;99498.81;;;6.40;73.64
42067;BME280;27734;47.028;28.820;2023-04-01T01:00:12;99488.39;;;6.40;73.25
42067;BME280;27734;47.028;28.820;2023-04-01T01:03:00;99487.34;;;6.35;73.91
42067;BME280;27734;47.028;28.820;2023-04-01T01:05:53;99490.82;;;6.35;73.62
42067;BME280;27734;47.028;28.820;2023-04-01T01:08:36;99483.75;;;6.31;73.74
42067;BME280;27734;47.028;28.820;2023-04-01T01:11:12;99477.57;;;6.29;73.96
42067;BME280;27734;47.028;28.820;2023-04-01T01:13:50;99474.03;;;6.27;74.08
42067;BME280;27734;47.028;28.820;2023-04-01T01:16:27;99473.92;;;6.24;74.04
42067;BME280;27734;47.028;28.820;2023-04-01T01:19:07;99468.59;;;6.21;74.00
42067;BME280;27734;47.028;28.820;2023-04-01T01:22:02;99474.63;;;6.20;73.94
42067;BME280;27734;47.028;28.820;2023-04-01T01:24:52;99462.34;;;6.16;73.82
42067;BME280;27734;47.028;28.820;2023-04-01T01:27:27;99458.77;;;6.14;73.83
42067;BME280;27734;47.028;28.820;2023-04-01T01:30:11;99451.64;;;6.08;74.31
42067;BME280;27734;47.028;28.820;2023-04-01T01:33:11;99453.28;;;6.06;74.06
42067;BME280;27734;47.028;28.820;2023-04-01T01:35:47;99445.41;;;6.04;74.10
42067;BME280;27734;47.028;28.820;2023-04-01T01:38:24;99441.93;;;6.04;75.03
42067;BME280;27734;47.028;28.820;2023-04-01T01:41:04;99444.48;;;6.02;74.38
42067;BME280;27734;47.028;28.820;2023-04-01T01:43:38;99445.30;;;6.01;74.34
42067;BME280;27734;47.028;28.820;2023-04-01T01:46:13;99441.81;;;6.01;74.54
42067;BME280;27734;47.028;28.820;2023-04-01T01:48:47;99445.19;;;5.98;74.63
42067;BME280;27734;47.028;28.820;2023-04-01T01:51:18;99443.34;;;5.96;75.20
42067;BME280;27734;47.028;28.820;2023-04-01T01:53:50;99443.34;;;5.96;75.05
42067;BME280;27734;47.028;28.820;2023-04-01T01:56:26;99441.61;;;5.96;75.05
42067;BME280;27734;47.028;28.820;2023-04-01T01:59:02;99439.92;;;5.97;75.11
42067;BME280;27734;47.028;28.820;2023-04-01T02:01:37;99434.71;;;5.97;75.47
42067;BME280;27734;47.028;28.820;2023-04-01T02:04:15;99433.95;;;5.99;75.32
42067;BME280;27734;47.028;28.820;2023-04-01T02:06:52;99433.24;;;6.03;75.49
42067;BME280;27734;47.028;28.820;2023-04-01T02:09:24;99428.03;;;6.03;75.60
42067;BME280;27734;47.028;28.820;2023-04-01T02:11:57;99429.73;;;6.03;75.62
42067;BME280;27734;47.028;28.820;2023-04-01T02:14:34;99430.58;;;6.02;75.83
42067;BME280;27734;47.028;28.820;2023-04-01T02:17:10;99430.52;;;6.00;75.90
42067;BME280;27734;47.028;28.820;2023-04-01T02:19:47;99419.00;;;5.95;75.95
42067;BME280;27734;47.028;28.820;2023-04-01T02:22:23;99423.21;;;5.91;75.79
42067;BME280;27734;47.028;28.820;2023-04-01T02:24:59;99424.88;;;5.89;76.02
42067;BME280;27734;47.028;28.820;2023-04-01T02:27:32;99415.23;;;5.87;76.01
42067;BME280;27734;47.028;28.820;2023-04-01T02:30:04;99405.64;;;5.86;76.26
42067;BME280;27734;47.028;28.820;2023-04-01T02:32:37;99403.83;;;5.83;75.99
42067;BME280;27734;47.028;28.820;2023-04-01T02:35:11;99396.78;;;5.81;76.56
42067;BME280;27734;47.028;28.820;2023-04-01T02:37:45;99400.88;;;5.74;76.99
42067;BME280;27734;47.028;28.820;2023-04-01T02:40:18;99401.53;;;5.68;76.73
42067;BME280;27734;47.028;28.820;2023-04-01T02:42:49;99406.50;;;5.62;76.60
42067;BME280;27734;47.028;28.820;2023-04-01T02:45:22;99396.77;;;5.56;76.53
42067;BME280;27734;47.028;28.820;2023-04-01T02:47:53;99389.66;;;5.52;76.93
42067;BME280;27734;47.028;28.820;2023-04-01T02:50:24;99392.08;;;5.48;76.47
42067;BME280;27734;47.028;28.820;2023-04-01T02:52:55;99380.62;;;5.43;76.74
42067;BME280;27734;47.028;28.820;2023-04-01T02:55:27;99376.87;;;5.36;76.61
42067;BME280;27734;47.028;28.820;2023-04-01T02:57:58;99381.09;;;5.32;76.63
42067;BME280;27734;47.028;28.820;2023-04-01T03:00:30;99385.41;;;5.32;76.66
42067;BME280;27734;47.028;28.820;2023-04-01T03:03:01;99390.62;;;5.32;76.47
42067;BME280;27734;47.028;28.820;2023-04-01T03:05:32;99397.45;;;5.30;76.99
42067;BME280;27734;47.028;28.820;2023-04-01T03:08:04;99393.80;;;5.25;76.70
42067;BME280;27734;47.028;28.820;2023-04-01T03:10:36;99392.04;;;5.24;76.22
42067;BME280;27734;47.028;28.820;2023-04-01T03:13:07;99398.00;;;5.21;76.02
42067;BME280;27734;47.028;28.820;2023-04-01T03:15:39;99398.00;;;5.21;75.92
42067;BME280;27734;47.028;28.820;2023-04-01T03:18:10;99404.13;;;5.23;76.81
42067;BME280;27734;47.028;28.820;2023-04-01T03:20:41;99401.53;;;5.23;76.71
42067;BME280;27734;47.028;28.820;2023-04-01T03:23:13;99406.73;;;5.23;76.48
42067;BME280;27734;47.028;28.820;2023-04-01T03:25:47;99398.87;;;5.21;76.66
42067;BME280;27734;47.028;28.820;2023-04-01T03:28:19;99402.33;;;5.20;76.97
42067;BME280;27734;47.028;28.820;2023-04-01T03:30:50;99399.66;;;5.19;76.72
42067;BME280;27734;47.028;28.820;2023-04-01T03:33:21;99397.81;;;5.16;76.72
42067;BME280;27734;47.028;28.820;2023-04-01T03:35:52;99401.30;;;5.17;77.19
42067;BME280;27734;47.028;28.820;2023-04-01T03:38:24;99402.14;;;5.16;76.91
42067;BME280;27734;47.028;28.820;2023-04-01T03:40:55;99394.28;;;5.14;77.05
42067;BME280;27734;47.028;28.820;2023-04-01T03:43:27;99394.97;;;5.10;77.05
42067;BME280;27734;47.028;28.820;2023-04-01T03:45:58;99405.19;;;5.06;77.36
42067;BME280;27734;47.028;28.820;2023-04-01T03:48:29;99395.48;;;5.01;77.02
42067;BME280;27734;47.028;28.820;2023-04-01T03:51:01;99399.73;;;4.99;77.16
42067;BME280;27734;47.028;28.820;2023-04-01T03:53:33;99401.41;;;4.97;77.43
42067;BME280;27734;47.028;28.820;2023-04-01T03:56:07;99403.03;;;4.95;77.45
42067;BME280;27734;47.028;28.820;2023-04-01T03:58:37;99406.41;;;4.93;78.33
42067;BME280;27734;47.028;28.820;2023-04-01T04:01:20;99396.08;;;4.94;77.30
42067;BME280;27734;47.028;28.820;2023-04-01T04:03:54;99393.60;;;4.97;77.17
42067;BME280;27734;47.028;28.820;2023-04-01T04:06:27;99397.20;;;5.01;77.92
42067;BME280;27734;47.028;28.820;2023-04-01T04:08:58;99389.47;;;5.02;78.01
42067;BME280;27734;47.028;28.820;2023-04-01T04:11:31;99383.45;;;5.03;77.54
42067;BME280;27734;47.028;28.820;2023-04-01T04:14:03;99390.40;;;5.04;77.32
42067;BME280;27734;47.028;28.820;2023-04-01T04:16:35;99393.91;;;5.05;77.58
42067;BME280;27734;47.028;28.820;2023-04-01T04:19:07;99383.57;;;5.07;77.60
42067;BME280;27734;47.028;28.820;2023-04-01T04:21:39;99384.51;;;5.09;78.33
42067;BME280;27734;47.028;28.820;2023-04-01T04:24:10;99382.03;;;5.12;77.88
42067;BME280;27734;47.028;28.820;2023-04-01T04:27:17;99379.48;;;5.13;78.39
42067;BME280;27734;47.028;28.820;2023-04-01T04:29:57;99373.53;;;5.16;78.03
42067;BME280;27734;47.028;28.820;2023-04-01T04:32:28;99384.18;;;5.22;78.20
42067;BME280;27734;47.028;28.820;2023-04-01T04:35:00;99377.43;;;5.27;78.31
42067;BME280;27734;47.028;28.820;2023-04-01T04:37:32;99370.68;;;5.32;78.43
42067;BME280;27734;47.028;28.820;2023-04-01T04:40:03;99367.50;;;5.39;78.45
42067;BME280;27734;47.028;28.820;2023-04-01T04:42:35;99365.08;;;5.44;78.33
42067;BME280;27734;47.028;28.820;2023-04-01T04:45:11;99366.13;;;5.49;78.56
42067;BME280;27734;47.028;28.820;2023-04-01T04:47:46;99374.92;;;5.53;78.93
42067;BME280;27734;47.028;28.820;2023-04-01T04:50:17;99371.62;;;5.57;78.81
42067;BME280;27734;47.028;28.820;2023-04-01T04:52:49;99374.39;;;5.62;78.59
42067;BME280;27734;47.028;28.820;2023-04-01T04:55:21;99372.89;;;5.68;78.81
42067;BME280;27734;47.028;28.820;2023-04-01T04:58:02;99373.23;;;5.78;79.02
42067;BME280;27734;47.028;28.820;2023-04-01T05:00:33;99370.86;;;5.84;78.66
42067;BME280;27734;47.028;28.820;2023-04-01T05:03:09;99378.08;;;5.91;78.49
42067;BME280;27734;47.028;28.820;2023-04-01T05:05:47;99381.87;;;5.99;78.74
42067;BME280;27734;47.028;28.820;2023-04-01T05:08:18;99379.64;;;6.10;78.65
42067;BME280;27734;47.028;28.820;2023-04-01T05:10:50;99375.59;;;6.18;78.60
42067;BME280;27734;47.028;28.820;2023-04-01T05:13:21;99374.21;;;6.28;78.83
42067;BME280;27734;47.028;28.820;2023-04-01T05:15:53;99364.08;;;6.37;78.90
42067;BME280;27734;47.028;28.820;2023-04-01T05:18:24;99367.86;;;6.45;78.85
42067;BME280;27734;47.028;28.820;2023-04-01T05:20:56;99366.38;;;6.54;78.55
42067;BME280;27734;47.028;28.820;2023-04-01T05:23:27;99367.62;;;6.65;78.85
42067;BME280;27734;47.028;28.820;2023-04-01T05:25:59;99366.23;;;6.75;78.93
42067;BME280;27734;47.028;28.820;2023-04-01T05:28:33;99372.62;;;6.84;78.88
42067;BME280;27734;47.028;28.820;2023-04-01T05:31:05;99372.16;;;6.98;79.09
42067;BME280;27734;47.028;28.820;2023-04-01T05:33:40;99374.23;;;7.08;79.36
42067;BME280;27734;47.028;28.820;2023-04-01T05:36:13;99371.87;;;7.16;79.01
42067;BME280;27734;47.028;28.820;2023-04-01T05:38:43;99370.32;;;7.23;79.28
42067;BME280;27734;47.028;28.820;2023-04-01T05:41:15;99374.95;;;7.31;79.25
42067;BME280;27734;47.028;28.820;2023-04-01T05:43:48;99371.67;;;7.38;79.54
42067;BME280;27734;47.028;28.820;2023-04-01T05:46:52;99377.13;;;7.46;79.17
42067;BME280;27734;47.028;28.820;2023-04-01T05:49:25;99372.95;;;7.51;78.85
42067;BME280;27734;47.028;28.820;2023-04-01T05:51:57;99368.78;;;7.58;79.02
42067;BME280;27734;47.028;28.820;2023-04-01T05:54:29;99367.23;;;7.65;79.15
42067;BME280;27734;47.028;28.820;2023-04-01T05:57:01;99375.37;;;7.76;79.44
42067;BME280;27734;47.028;28.820;2023-04-01T05:59:33;99382.64;;;7.86;79.04
42067;BME280;27734;47.028;28.820;2023-04-01T06:02:05;99381.22;;;7.97;79.00
42067;BME280;27734;47.028;28.820;2023-04-01T06:04:39;99383.30;;;8.09;78.95
42067;BME280;27734;47.028;28.820;2023-04-01T06:07:15;99377.50;;;8.21;79.14
42067;BME280;27734;47.028;28.820;2023-04-01T06:09:47;99377.80;;;8.32;79.26
42067;BME280;27734;47.028;28.820;2023-04-01T06:12:39;99379.78;;;8.40;78.93
42067;BME280;27734;47.028;28.820;2023-04-01T06:15:23;99371.34;;;8.51;78.97
42067;BME280;27734;47.028;28.820;2023-04-01T06:18:10;99375.11;;;8.60;79.00
42067;BME280;27734;47.028;28.820;2023-04-01T06:20:53;99379.62;;;8.68;78.89
42067;BME280;27734;47.028;28.820;2023-04-01T06:23:43;99378.95;;;8.75;78.69
42067;BME280;27734;47.028;28.820;2023-04-01T06:26:25;99373.03;;;8.82;78.66
42067;BME280;27734;47.028;28.820;2023-04-01T06:32:29;99368.36;;;9.07;78.90
42067;BME280;27734;47.028;28.820;2023-04-01T06:38:24;99367.36;;;9.38;78.92
42067;BME280;27734;47.028;28.820;2023-04-01T06:41:30;99367.70;;;9.55;79.52
42067;BME280;27734;47.028;28.820;2023-04-01T06:44:16;99365.34;;;9.67;79.27
42067;BME280;27734;47.028;28.820;2023-04-01T06:47:18;99359.52;;;9.81;79.05
42067;BME280;27734;47.028;28.820;2023-04-01T06:50:17;99361.45;;;9.89;78.83
42067;BME280;27734;47.028;28.820;2023-04-01T06:53:15;99358.18;;;10.01;78.58
42067;BME280;27734;47.028;28.820;2023-04-01T06:56:02;99358.39;;;10.12;78.85
42067;BME280;27734;47.028;28.820;2023-04-01T06:59:01;99350.58;;;10.15;77.64
42067;BME280;27734;47.028;28.820;2023-04-01T07:01:39;99338.44;;;10.20;78.59
42067;BME280;27734;47.028;28.820;2023-04-01T07:04:15;99340.33;;;10.28;78.31
42067;BME280;27734;47.028;28.820;2023-04-01T07:06:52;99335.37;;;10.41;78.28
42067;BME280;27734;47.028;28.820;2023-04-01T07:09:27;99343.55;;;10.60;78.82
42067;BME280;27734;47.028;28.820;2023-04-01T07:12:26;99339.56;;;10.84;78.90
42067;BME280;27734;47.028;28.820;2023-04-01T07:15:28;99332.14;;;11.13;78.86
42067;BME280;27734;47.028;28.820;2023-04-01T07:18:05;99328.88;;;11.31;78.79
42067;BME280;27734;47.028;28.820;2023-04-01T07:20:40;99333.41;;;11.41;78.33
42067;BME280;27734;47.028;28.820;2023-04-01T07:23:20;99330.02;;;11.48;78.20
42067;BME280;27734;47.028;28.820;2023-04-01T07:26:14;99330.14;;;11.58;78.26
42067;BME280;27734;47.028;28.820;2023-04-01T07:29:08;99320.67;;;11.72;78.57
42067;BME280;27734;47.028;28.820;2023-04-01T07:32:05;99315.42;;;11.72;78.57
42067;BME280;27734;47.028;28.820;2023-04-01T07:34:46;99306.61;;;11.70;78.16
42067;BME280;27734;47.028;28.820;2023-04-01T07:37:27;99305.70;;;11.66;78.06
42067;BME280;27734;47.028;28.820;2023-04-01T07:40:10;99297.80;;;11.65;78.30
42067;BME280;27734;47.028;28.820;2023-04-01T07:42:57;99298.69;;;11.67;77.95
42067;BME280;27734;47.028;28.820;2023-04-01T07:45:37;99289.17;;;11.75;78.41
42067;BME280;27734;47.028;28.820;2023-04-01T07:48:20;99284.91;;;11.86;78.59
42067;BME280;27734;47.028;28.820;2023-04-01T07:50:57;99294.74;;;12.00;78.45
42067;BME280;27734;47.028;28.820;2023-04-01T07:53:36;99294.81;;;12.06;78.02
42067;BME280;27734;47.028;28.820;2023-04-01T07:56:11;99285.22;;;12.13;78.41
42067;BME280;27734;47.028;28.820;2023-04-01T07:58:53;99279.17;;;12.23;78.11
42067;BME280;27734;47.028;28.820;2023-04-01T08:02:05;99276.69;;;12.40;77.63
42067;BME280;27734;47.028;28.820;2023-04-01T08:04:53;99272.45;;;12.54;77.78
42067;BME280;27734;47.028;28.820;2023-04-01T08:07:31;99271.70;;;12.74;77.86
42067;BME280;27734;47.028;28.820;2023-04-01T08:10:35;99258.70;;;12.97;77.54
42067;BME280;27734;47.028;28.820;2023-04-01T08:13:34;99260.56;;;13.20;77.16
42067;BME280;27734;47.028;28.820;2023-04-01T08:16:48;99253.72;;;13.45;77.33
42067;BME280;27734;47.028;28.820;2023-04-01T08:19:35;99246.76;;;13.67;77.31
42067;BME280;27734;47.028;28.820;2023-04-01T08:22:15;99258.23;;;13.91;76.91
42067;BME280;27734;47.028;28.820;2023-04-01T08:24:50;99249.50;;;14.10;77.13
42067;BME280;27734;47.028;28.820;2023-04-01T08:27:31;99252.13;;;14.23;76.65
42067;BME280;27734;47.028;28.820;2023-04-01T08:30:15;99251.27;;;14.31;75.95
42067;BME280;27734;47.028;28.820;2023-04-01T08:32:50;99254.77;;;14.39;75.43
42067;BME280;27734;47.028;28.820;2023-04-01T08:35:29;99253.03;;;14.38;75.68
42067;BME280;27734;47.028;28.820;2023-04-01T08:38:16;99253.91;;;14.41;75.50
42067;BME280;27734;47.028;28.820;2023-04-01T08:41:04;99255.67;;;14.37;75.08
42067;BME280;27734;47.028;28.820;2023-04-01T08:44:19;99251.27;;;14.39;75.38
42067;BME280;27734;47.028;28.820;2023-04-01T08:53:06;99247.76;;;14.37;74.16
42067;BME280;27734;47.028;28.820;2023-04-01T08:55:47;99238.94;;;14.36;73.09
42067;BME280;27734;47.028;28.820;2023-04-01T09:02:10;99243.34;;;14.30;72.97
42067;BME280;27734;47.028;28.820;2023-04-01T09:05:11;99236.30;;;14.29;73.54
42067;BME280;27734;47.028;28.820;2023-04-01T09:07:56;99227.52;;;14.28;72.40
42067;BME280;27734;47.028;28.820;2023-04-01T09:17:04;99205.53;;;14.31;73.35
42067;BME280;27734;47.028;28.820;2023-04-01T09:19:51;99194.08;;;14.33;73.10
42067;BME280;27734;47.028;28.820;2023-04-01T09:22:41;99189.70;;;14.35;72.20
42067;BME280;27734;47.028;28.820;2023-04-01T09:25:44;99190.57;;;14.41;72.20
42067;BME280;27734;47.028;28.820;2023-04-01T09:28:20;99191.42;;;14.53;71.99
42067;BME280;27734;47.028;28.820;2023-04-01T09:31:09;99188.80;;;14.70;71.93
42067;BME280;27734;47.028;28.820;2023-04-01T09:37:21;99179.02;;;15.00;71.04
42067;BME280;27734;47.028;28.820;2023-04-01T09:40:16;99176.38;;;15.03;70.76
42067;BME280;27734;47.028;28.820;2023-04-01T09:46:15;99159.63;;;15.09;69.83
42067;BME280;27734;47.028;28.820;2023-04-01T09:51:55;99166.50;;;15.44;66.58
42067;BME280;27734;47.028;28.820;2023-04-01T09:54:52;99156.74;;;15.60;69.75
42067;BME280;27734;47.028;28.820;2023-04-01T09:57:56;99155.75;;;15.78;69.53
42067;BME280;27734;47.028;28.820;2023-04-01T10:01:15;99156.53;;;15.91;68.17
42067;BME280;27734;47.028;28.820;2023-04-01T10:04:14;99141.55;;;15.94;68.00
42067;BME280;27734;47.028;28.820;2023-04-01T10:28:59;99153.50;;;15.02;67.13
42067;BME280;27734;47.028;28.820;2023-04-01T10:32:05;99147.31;;;15.05;67.41
42067;BME280;27734;47.028;28.820;2023-04-01T10:35:03;99149.93;;;15.09;68.04
42067;BME280;27734;47.028;28.820;2023-04-01T10:40:46;99142.03;;;15.03;67.62
42067;BME280;27734;47.028;28.820;2023-04-01T10:44:06;99133.23;;;15.04;66.92
42067;BME280;27734;47.028;28.820;2023-04-01T10:56:43;99116.48;;;15.10;66.91
42067;BME280;27734;47.028;28.820;2023-04-01T11:00:05;99112.96;;;15.06;66.81
42067;BME280;27734;47.028;28.820;2023-04-01T11:07:21;99105.99;;;14.95;66.83
42067;BME280;27734;47.028;28.820;2023-04-01T11:19:27;99106.91;;;14.83;67.67
42067;BME280;27734;47.028;28.820;2023-04-01T11:22:27;99104.27;;;14.83;67.20
42067;BME280;27734;47.028;28.820;2023-04-01T11:25:14;99105.15;;;14.79;66.65
42067;BME280;27734;47.028;28.820;2023-04-01T11:28:34;99095.50;;;14.74;66.73
42067;BME280;27734;47.028;28.820;2023-04-01T11:31:28;99092.00;;;14.72;67.43
42067;BME280;27734;47.028;28.820;2023-04-01T11:34:31;99091.09;;;14.75;66.97
42067;BME280;27734;47.028;28.820;2023-04-01T11:37:22;99089.29;;;14.83;67.13
42067;BME280;27734;47.028;28.820;2023-04-01T11:40:33;99090.17;;;14.87;67.01
42067;BME280;27734;47.028;28.820;2023-04-01T11:43:36;99091.91;;;14.88;66.50
42067;BME280;27734;47.028;28.820;2023-04-01T11:46:46;99083.10;;;14.92;67.25
42067;BME280;27734;47.028;28.820;2023-04-01T11:49:32;99076.01;;;15.00;66.49
42067;BME280;27734;47.028;28.820;2023-04-01T11:52:42;99073.32;;;15.09;66.29
42067;BME280;27734;47.028;28.820;2023-04-01T11:55:27;99062.70;;;15.19;66.08
42067;BME280;27734;47.028;28.820;2023-04-01T11:58:22;99061.80;;;15.24;65.91
42067;BME280;27734;47.028;28.820;2023-04-01T12:01:15;99059.16;;;15.24;66.38
42067;BME280;27734;47.028;28.820;2023-04-01T12:06:47;99061.83;;;15.18;66.16
42067;BME280;27734;47.028;28.820;2023-04-01T12:09:29;99064.52;;;15.12;65.40
42067;BME280;27734;47.028;28.820;2023-04-01T12:12:14;99061.91;;;15.06;66.33
42067;BME280;27734;47.028;28.820;2023-04-01T12:14:54;99050.48;;;15.02;65.42
42067;BME280;27734;47.028;28.820;2023-04-01T12:17:36;99054.88;;;15.00;65.95
42067;BME280;27734;47.028;28.820;2023-04-01T12:20:33;99057.53;;;14.97;66.15
42067;BME280;27734;47.028;28.820;2023-04-01T12:23:18;99054.91;;;14.94;65.36
42067;BME280;27734;47.028;28.820;2023-04-01T12:26:09;99061.09;;;14.93;65.41
42067;BME280;27734;47.028;28.820;2023-04-01T12:28:59;99058.47;;;14.90;66.38
42067;BME280;27734;47.028;28.820;2023-04-01T12:31:41;99075.19;;;14.90;65.77
42067;BME280;27734;47.028;28.820;2023-04-01T12:34:47;99079.59;;;14.91;66.75
42067;BME280;27734;47.028;28.820;2023-04-01T12:37:29;99090.14;;;14.95;67.32
42067;BME280;27734;47.028;28.820;2023-04-01T12:40:23;99083.97;;;14.92;67.79
42067;BME280;27734;47.028;28.820;2023-04-01T12:43:18;99075.19;;;14.90;67.80
42067;BME280;27734;47.028;28.820;2023-04-01T12:45:57;99061.97;;;14.92;68.25
42067;BME280;27734;47.028;28.820;2023-04-01T12:48:41;99058.42;;;14.99;68.03
42067;BME280;27734;47.028;28.820;2023-04-01T12:54:52;99054.80;;;15.16;67.76
42067;BME280;27734;47.028;28.820;2023-04-01T12:57:42;99045.97;;;15.20;68.51
42067;BME280;27734;47.028;28.820;2023-04-01T13:00:32;99050.38;;;15.21;68.27
42067;BME280;27734;47.028;28.820;2023-04-01T13:03:24;99046.87;;;15.16;67.69
42067;BME280;27734;47.028;28.820;2023-04-01T13:06:29;99039.86;;;15.13;68.39
42067;BME280;27734;47.028;28.820;2023-04-01T13:09:16;99038.10;;;15.10;68.19
42067;BME280;27734;47.028;28.820;2023-04-01T13:12:02;99038.98;;;15.09;68.52
42067;BME280;27734;47.028;28.820;2023-04-01T13:14:59;99026.70;;;15.05;68.04
42067;BME280;27734;47.028;28.820;2023-04-01T13:17:41;99032.87;;;15.01;67.98
42067;BME280;27734;47.028;28.820;2023-04-01T13:20:24;99020.56;;;14.96;67.63
42067;BME280;27734;47.028;28.820;2023-04-01T13:23:09;99032.06;;;14.90;67.53
42067;BME280;27734;47.028;28.820;2023-04-01T13:25:49;99029.44;;;14.87;67.48
42067;BME280;27734;47.028;28.820;2023-04-01T13:28:27;99032.97;;;14.83;68.26
42067;BME280;27734;47.028;28.820;2023-04-01T13:31:05;99034.74;;;14.82;68.11
42067;BME280;27734;47.028;28.820;2023-04-01T13:33:42;99044.43;;;14.76;68.20
42067;BME280;27734;47.028;28.820;2023-04-01T13:36:28;99040.10;;;14.64;67.32
42067;BME280;27734;47.028;28.820;2023-04-01T13:39:28;99040.09;;;14.58;67.98
42067;BME280;27734;47.028;28.820;2023-04-01T13:42:18;99033.07;;;14.49;67.99
42067;BME280;27734;47.028;28.820;2023-04-01T13:44:59;99036.64;;;14.42;68.30
42067;BME280;27734;47.028;28.820;2023-04-01T13:47:49;99034.02;;;14.35;67.95
42067;BME280;27734;47.028;28.820;2023-04-01T13:50:35;99035.77;;;14.30;68.08
42067;BME280;27734;47.028;28.820;2023-04-01T13:53:25;99039.31;;;14.26;68.48
42067;BME280;27734;47.028;28.820;2023-04-01T13:56:09;99041.09;;;14.21;67.51
42067;BME280;27734;47.028;28.820;2023-04-01T13:59:14;99043.75;;;14.13;67.84
42067;BME280;27734;47.028;28.820;2023-04-01T14:01:51;99034.95;;;14.03;69.22
42067;BME280;27734;47.028;28.820;2023-04-01T14:04:49;99042.02;;;13.95;68.16
42067;BME280;27734;47.028;28.820;2023-04-01T14:07:44;99032.34;;;13.87;68.96
42067;BME280;27734;47.028;28.820;2023-04-01T14:10:27;99043.80;;;13.79;69.42
42067;BME280;27734;47.028;28.820;2023-04-01T14:13:09;99042.89;;;13.73;69.43
42067;BME280;27734;47.028;28.820;2023-04-01T14:15:58;99035.02;;;13.65;69.88
42067;BME280;27734;47.028;28.820;2023-04-01T14:19:11;99045.56;;;13.59;70.16
42067;BME280;27734;47.028;28.820;2023-04-01T14:21:53;99042.02;;;13.47;70.72
42067;BME280;27734;47.028;28.820;2023-04-01T14:24:40;99042.91;;;13.39;70.27
42067;BME280;27734;47.028;28.820;2023-04-01T14:27:32;99043.73;;;13.28;71.45
42067;BME280;27734;47.028;28.820;2023-04-01T14:30:16;99048.98;;;13.21;70.96
42067;BME280;27734;47.028;28.820;2023-04-01T14:32:57;99046.34;;;13.13;72.12
42067;BME280;27734;47.028;28.820;2023-04-01T14:35:39;99053.34;;;13.05;71.68
42067;BME280;27734;47.028;28.820;2023-04-01T14:38:36;99046.30;;;12.98;72.37
42067;BME280;27734;47.028;28.820;2023-04-01T14:41:19;99051.55;;;12.91;72.00
42067;BME280;27734;47.028;28.820;2023-04-01T14:47:20;99058.53;;;12.80;73.18
42067;BME280;27734;47.028;28.820;2023-04-01T14:50:05;99057.64;;;12.73;73.92
42067;BME280;27734;47.028;28.820;2023-04-01T14:52:40;99047.09;;;12.67;74.81
42067;BME280;27734;47.028;28.820;2023-04-01T14:55:34;99055.84;;;12.63;74.52
42067;BME280;27734;47.028;28.820;2023-04-01T14:58:16;99053.18;;;12.58;74.36
42067;BME280;27734;47.028;28.820;2023-04-01T15:00:59;99054.94;;;12.56;74.22
42067;BME280;27734;47.028;28.820;2023-04-01T15:03:36;99047.90;;;12.54;74.36
42067;BME280;27734;47.028;28.820;2023-04-01T15:06:30;99049.64;;;12.50;74.91
42067;BME280;27734;47.028;28.820;2023-04-01T15:09:13;99045.23;;;12.46;75.02
42067;BME280;27734;47.028;28.820;2023-04-01T15:11:59;99046.11;;;12.42;74.92
42067;BME280;27734;47.028;28.820;2023-04-01T15:14:46;99048.72;;;12.39;75.24
42067;BME280;27734;47.028;28.820;2023-04-01T15:17:33;99044.31;;;12.35;75.56
42067;BME280;27734;47.028;28.820;2023-04-01T15:20:29;99040.77;;;12.28;76.25
42067;BME280;27734;47.028;28.820;2023-04-01T15:23:13;99046.88;;;12.24;76.03
42067;BME280;27734;47.028;28.820;2023-04-01T15:25:57;99052.98;;;12.21;76.13
42067;BME280;27734;47.028;28.820;2023-04-01T15:28:36;99045.97;;;12.17;76.51
42067;BME280;27734;47.028;28.820;2023-04-01T15:31:13;99044.19;;;12.13;77.12
42067;BME280;27734;47.028;28.820;2023-04-01T15:34:07;99051.18;;;12.10;76.68
42067;BME280;27734;47.028;28.820;2023-04-01T15:36:44;99046.77;;;12.05;76.81
42067;BME280;27734;47.028;28.820;2023-04-01T15:39:27;99046.73;;;12.02;77.13
42067;BME280;27734;47.028;28.820;2023-04-01T15:42:16;99051.09;;;11.97;77.12
42067;BME280;27734;47.028;28.820;2023-04-01T15:45:00;99045.81;;;11.93;77.33